createdAt,value
2023-02-26T00:01:37.771Z,100707.00
2023-02-26T00:04:07.773Z,100714.00
2023-02-26T00:06:38.929Z,100712.00
2023-02-26T00:09:06.524Z,100714.00
2023-02-26T00:11:34.008Z,100725.00
2023-02-26T00:14:01.168Z,100727.00
2023-02-26T00:16:36.093Z,100725.00
2023-02-26T00:19:07.520Z,100732.00
2023-02-26T00:21:36.213Z,100738.00
2023-02-26T00:24:03.458Z,100741.00
2023-02-26T00:26:32.016Z,100740.00
2023-02-26T00:28:59.628Z,100749.00
2023-02-26T00:31:27.187Z,100753.00
2023-02-26T00:33:56.943Z,100758.00
2023-02-26T00:36:43.253Z,100758.00
2023-02-26T00:39:46.449Z,100759.00
2023-02-26T00:42:14.509Z,100764.00
2023-02-26T00:44:41.908Z,100764.00
2023-02-26T00:47:30.680Z,100775.00
2023-02-26T00:50:19.459Z,100773.00
2023-02-26T00:53:19.909Z,100777.00
2023-02-26T00:55:46.642Z,100781.00
2023-02-26T00:58:13.415Z,100788.00
2023-02-26T01:00:40.179Z,100779.00
2023-02-26T01:03:07.590Z,100792.00
2023-02-26T01:05:34.885Z,100791.00
2023-02-26T01:08:08.882Z,100800.00
2023-02-26T01:10:35.968Z,100803.00
2023-02-26T01:13:03.237Z,100800.00
2023-02-26T01:15:30.785Z,100797.00
2023-02-26T01:18:16.454Z,100791.00
2023-02-26T01:21:03.939Z,100800.00
2023-02-26T01:23:38.169Z,100801.00
2023-02-26T01:26:18.122Z,100807.00
2023-02-26T01:28:45.130Z,100811.00
2023-02-26T01:31:33.076Z,100797.00
2023-02-26T01:34:15.561Z,100814.00
2023-02-26T01:37:26.736Z,100811.00
2023-02-26T01:40:38.207Z,100800.00
2023-02-26T01:43:20.583Z,100810.00
2023-02-26T01:46:15.335Z,100815.00
2023-02-26T01:48:56.664Z,100825.00
2023-02-26T01:51:47.135Z,100834.00
2023-02-26T01:54:19.150Z,100822.00
2023-02-26T01:56:53.196Z,100825.00
2023-02-26T01:59:24.799Z,100830.00
2023-02-26T02:01:58.735Z,100828.00
2023-02-26T02:04:26.855Z,100845.00
2023-02-26T02:06:55.521Z,100830.00
2023-02-26T02:09:23.072Z,100845.00
2023-02-26T02:12:11.477Z,100844.00
2023-02-26T02:15:13.458Z,100858.00
2023-02-26T02:18:19.740Z,100856.00
2023-02-26T02:21:27.876Z,100871.00
2023-02-26T02:24:11.699Z,100871.00
2023-02-26T02:27:08.515Z,100875.00
2023-02-26T02:30:04.693Z,100876.00
2023-02-26T02:32:50.706Z,100873.00
2023-02-26T02:35:37.427Z,100872.00
2023-02-26T02:38:26.240Z,100882.00
2023-02-26T02:41:19.303Z,100892.00
2023-02-26T02:43:49.141Z,100891.00
2023-02-26T02:46:27.479Z,100892.00
2023-02-26T02:49:03.142Z,100891.00
2023-02-26T02:51:46.408Z,100905.00
2023-02-26T02:54:27.994Z,100915.00
2023-02-26T02:57:07.683Z,100906.00
2023-02-26T02:59:47.321Z,100910.00
2023-02-26T03:02:28.676Z,100914.00
2023-02-26T03:04:55.442Z,100919.00
2023-02-26T03:07:22.231Z,100913.00
2023-02-26T03:09:49.694Z,100912.00
2023-02-26T03:12:16.691Z,100925.00
2023-02-26T03:14:43.662Z,100922.00
2023-02-26T03:17:43.211Z,100916.00
2023-02-26T03:20:26.629Z,100934.00
2023-02-26T03:23:21.749Z,100937.00
2023-02-26T03:26:10.574Z,100949.00
2023-02-26T03:29:01.647Z,100944.00
2023-02-26T03:31:57.363Z,100952.00
2023-02-26T03:34:46.348Z,100954.00
2023-02-26T03:37:26.235Z,100958.00
2023-02-26T03:39:59.059Z,100966.00
2023-02-26T03:42:36.276Z,100984.00
2023-02-26T03:45:11.615Z,100978.00
2023-02-26T03:47:42.958Z,100980.00
2023-02-26T03:50:21.971Z,100988.00
2023-02-26T03:52:52.032Z,100990.00
2023-02-26T03:55:41.403Z,100997.00
2023-02-26T03:58:08.127Z,101001.00
2023-02-26T04:00:42.092Z,101014.00
2023-02-26T04:03:35.090Z,101012.00
2023-02-26T04:06:04.065Z,101005.00
2023-02-26T04:08:31.066Z,101005.00
2023-02-26T04:11:07.037Z,101021.00
2023-02-26T04:13:33.815Z,101019.00
2023-02-26T04:16:00.587Z,101018.00
2023-02-26T04:18:27.708Z,101026.00
2023-02-26T04:20:54.865Z,101030.00
2023-02-26T04:23:22.000Z,101022.00
2023-02-26T04:25:48.746Z,101036.00
2023-02-26T04:28:15.731Z,101038.00
2023-02-26T04:30:42.434Z,101031.00
2023-02-26T04:33:09.170Z,101028.00
2023-02-26T04:35:36.169Z,101044.00
2023-02-26T04:38:02.921Z,101047.00
2023-02-26T04:40:29.855Z,101057.00
2023-02-26T04:42:56.683Z,101059.00
2023-02-26T04:45:23.561Z,101058.00
2023-02-26T04:47:50.291Z,101066.00
2023-02-26T04:50:17.321Z,101063.00
2023-02-26T04:52:44.066Z,101070.00
2023-02-26T04:55:10.888Z,101070.00
2023-02-26T04:57:38.014Z,101080.00
2023-02-26T05:00:08.096Z,101089.00
2023-02-26T05:02:34.870Z,101088.00
2023-02-26T05:05:01.933Z,101086.00
2023-02-26T05:07:29.198Z,101099.00
2023-02-26T05:09:55.940Z,101083.00
2023-02-26T05:12:22.786Z,101088.00
2023-02-26T05:14:49.508Z,101104.00
2023-02-26T05:17:16.290Z,101109.00
2023-02-26T05:19:43.087Z,101119.00
2023-02-26T05:22:09.794Z,101100.00
2023-02-26T05:24:36.609Z,101110.00
2023-02-26T05:27:03.625Z,101134.00
2023-02-26T05:29:30.727Z,101123.00
2023-02-26T05:31:57.637Z,101121.00
2023-02-26T05:34:24.573Z,101134.00
2023-02-26T05:36:51.458Z,101121.00
2023-02-26T05:39:18.183Z,101148.00
2023-02-26T05:41:46.498Z,101134.00
2023-02-26T05:44:13.751Z,101148.00
2023-02-26T05:46:40.625Z,101142.00
2023-02-26T05:49:07.404Z,101152.00
2023-02-26T05:51:34.186Z,101157.00
2023-02-26T05:54:00.943Z,101150.00
2023-02-26T05:56:27.762Z,101157.00
2023-02-26T05:58:55.410Z,101148.00
2023-02-26T06:01:22.232Z,101158.00
2023-02-26T06:03:48.945Z,101163.00
2023-02-26T06:06:18.474Z,101175.00
2023-02-26T06:08:45.962Z,101164.00
2023-02-26T06:11:12.926Z,101167.00
2023-02-26T06:13:40.115Z,101171.00
2023-02-26T06:16:07.253Z,101181.00
2023-02-26T06:18:34.052Z,101189.00
2023-02-26T06:21:01.672Z,101178.00
2023-02-26T06:23:28.945Z,101193.00
2023-02-26T06:25:55.753Z,101210.00
2023-02-26T06:28:24.561Z,101213.00
2023-02-26T06:30:54.929Z,101216.00
2023-02-26T06:33:21.704Z,101218.00
2023-02-26T06:35:48.814Z,101218.00
2023-02-26T06:38:16.820Z,101220.00
2023-02-26T06:40:44.087Z,101212.00
2023-02-26T06:43:10.876Z,101217.00
2023-02-26T06:45:37.906Z,101218.00
2023-02-26T06:48:05.898Z,101220.00
2023-02-26T06:50:32.700Z,101221.00
2023-02-26T06:52:59.583Z,101219.00
2023-02-26T06:55:28.967Z,101255.00
2023-02-26T06:57:58.334Z,101243.00
2023-02-26T07:00:26.369Z,101252.00
2023-02-26T07:02:53.604Z,101273.00
2023-02-26T07:05:20.377Z,101269.00
2023-02-26T07:07:47.371Z,101273.00
2023-02-26T07:10:14.194Z,101273.00
2023-02-26T07:12:41.005Z,101273.00
2023-02-26T07:15:08.689Z,101276.00
2023-02-26T07:17:35.479Z,101299.00
2023-02-26T07:20:06.526Z,101301.00
2023-02-26T07:22:33.919Z,101300.00
2023-02-26T07:25:00.681Z,101308.00
2023-02-26T07:27:27.699Z,101316.00
2023-02-26T07:29:54.438Z,101317.00
2023-02-26T07:32:21.906Z,101312.00
2023-02-26T07:34:48.792Z,101317.00
2023-02-26T07:37:16.156Z,101329.00
2023-02-26T07:39:42.941Z,101340.00
2023-02-26T07:42:09.773Z,101337.00
2023-02-26T07:44:36.748Z,101337.00
2023-02-26T07:47:04.137Z,101345.00
2023-02-26T07:49:32.521Z,101344.00
2023-02-26T07:51:59.932Z,101351.00
2023-02-26T07:54:26.913Z,101363.00
2023-02-26T07:56:54.085Z,101349.00
2023-02-26T07:59:21.314Z,101355.00
2023-02-26T08:01:48.147Z,101344.00
2023-02-26T08:04:15.337Z,101360.00
2023-02-26T08:06:42.639Z,101364.00
2023-02-26T08:09:09.577Z,101366.00
2023-02-26T08:11:39.680Z,101373.00
2023-02-26T08:14:07.587Z,101381.00
2023-02-26T08:16:34.364Z,101370.00
2023-02-26T08:19:01.134Z,101378.00
2023-02-26T08:21:28.222Z,101383.00
2023-02-26T08:23:54.994Z,101398.00
2023-02-26T08:26:21.961Z,101399.00
2023-02-26T08:28:49.227Z,101407.00
2023-02-26T08:31:16.852Z,101401.00
2023-02-26T08:33:44.524Z,101409.00
2023-02-26T08:36:11.867Z,101410.00
2023-02-26T08:38:39.523Z,101418.00
2023-02-26T08:41:06.420Z,101417.00
2023-02-26T08:43:33.324Z,101421.00
2023-02-26T08:46:00.585Z,101426.00
2023-02-26T08:48:27.447Z,101441.00
2023-02-26T08:50:54.360Z,101428.00
2023-02-26T08:53:21.143Z,101431.00
2023-02-26T08:55:50.006Z,101439.00
2023-02-26T08:58:17.563Z,101438.00
2023-02-26T09:00:44.411Z,101449.00
2023-02-26T09:03:11.715Z,101445.00
2023-02-26T09:05:38.832Z,101442.00
2023-02-26T09:08:05.725Z,101444.00
2023-02-26T09:10:32.628Z,101449.00
2023-02-26T09:12:59.484Z,101447.00
2023-02-26T09:15:26.662Z,101460.00
2023-02-26T09:17:53.525Z,101471.00
2023-02-26T09:20:20.466Z,101464.00
2023-02-26T09:22:47.187Z,101458.00
2023-02-26T09:25:15.738Z,101468.00
2023-02-26T09:27:42.519Z,101471.00
2023-02-26T09:30:10.388Z,101468.00
2023-02-26T09:32:38.066Z,101482.00
2023-02-26T09:35:05.609Z,101498.00
2023-02-26T09:37:32.332Z,101509.00
2023-02-26T09:39:59.110Z,101501.00
2023-02-26T09:43:11.712Z,101510.00
2023-02-26T09:45:44.485Z,101505.00
2023-02-26T09:48:18.112Z,101515.00
2023-02-26T09:50:50.739Z,101508.00
2023-02-26T09:53:25.318Z,101517.00
2023-02-26T09:56:00.797Z,101516.00
2023-02-26T09:58:35.456Z,101518.00
2023-02-26T10:01:26.434Z,101522.00
2023-02-26T10:04:11.905Z,101528.00
2023-02-26T10:07:10.325Z,101532.00
2023-02-26T10:10:15.348Z,101527.00
2023-02-26T10:12:44.974Z,101532.00
2023-02-26T10:15:20.901Z,101537.00
2023-02-26T10:18:11.863Z,101545.00
2023-02-26T10:20:56.641Z,101547.00
2023-02-26T10:23:44.924Z,101545.00
2023-02-26T10:26:20.288Z,101550.00
2023-02-26T10:29:23.224Z,101560.00
2023-02-26T10:32:23.269Z,101563.00
2023-02-26T10:35:02.873Z,101554.00
2023-02-26T10:38:02.879Z,101559.00
2023-02-26T10:40:50.431Z,101551.00
2023-02-26T10:43:24.929Z,101568.00
2023-02-26T10:46:33.898Z,101568.00
2023-02-26T10:49:28.973Z,101561.00
2023-02-26T10:52:04.429Z,101571.00
2023-02-26T10:54:40.715Z,101573.00
2023-02-26T10:57:23.049Z,101573.00
2023-02-26T10:59:49.905Z,101582.00
2023-02-26T11:02:40.115Z,101578.00
2023-02-26T11:05:17.519Z,101590.00
2023-02-26T11:07:56.033Z,101593.00
2023-02-26T11:10:31.499Z,101592.00
2023-02-26T11:12:59.077Z,101587.00
2023-02-26T11:15:27.406Z,101580.00
2023-02-26T11:18:00.007Z,101587.00
2023-02-26T11:20:37.613Z,101600.00
2023-02-26T11:23:12.741Z,101597.00
2023-02-26T11:25:40.887Z,101603.00
2023-02-26T11:28:20.910Z,101612.00
2023-02-26T11:30:49.395Z,101609.00
2023-02-26T11:33:37.524Z,101601.00
2023-02-26T11:36:15.931Z,101618.00
2023-02-26T11:38:47.482Z,101622.00
2023-02-26T11:41:14.512Z,101614.00
2023-02-26T11:43:46.508Z,101619.00
2023-02-26T11:46:14.547Z,101623.00
2023-02-26T11:48:49.549Z,101621.00
2023-02-26T11:51:22.714Z,101627.00
2023-02-26T11:54:01.443Z,101628.00
2023-02-26T11:56:40.456Z,101631.00
2023-02-26T11:59:20.113Z,101629.00
2023-02-26T12:01:49.383Z,101633.00
2023-02-26T12:04:27.481Z,101627.00
2023-02-26T12:06:56.106Z,101630.00
2023-02-26T12:09:26.033Z,101638.00
2023-02-26T12:12:10.259Z,101623.00
2023-02-26T12:14:57.684Z,101637.00
2023-02-26T12:18:09.878Z,101647.00
2023-02-26T12:20:57.046Z,101629.00
2023-02-26T12:24:03.445Z,101648.00
2023-02-26T12:26:48.233Z,101640.00
2023-02-26T12:29:48.543Z,101645.00
2023-02-26T12:32:57.739Z,101655.00
2023-02-26T12:35:43.454Z,101640.00
2023-02-26T12:38:20.283Z,101650.00
2023-02-26T12:41:47.280Z,101643.00
2023-02-26T12:44:52.819Z,101648.00
2023-02-26T12:47:56.235Z,101654.00
2023-02-26T12:51:11.795Z,101652.00
2023-02-26T12:54:22.616Z,101656.00
2023-02-26T12:57:20.800Z,101648.00
2023-02-26T13:00:15.216Z,101638.00
2023-02-26T13:03:13.520Z,101653.00
2023-02-26T13:06:27.759Z,101662.00
2023-02-26T13:09:31.966Z,101676.00
2023-02-26T13:12:24.383Z,101668.00
2023-02-26T13:15:06.084Z,101669.00
2023-02-26T13:18:06.906Z,101663.00
2023-02-26T13:20:37.258Z,101658.00
2023-02-26T13:23:15.951Z,101666.00
2023-02-26T13:25:55.238Z,101685.00
2023-02-26T13:29:29.309Z,101686.00
2023-02-26T13:32:13.799Z,101680.00
2023-02-26T13:35:01.620Z,101701.00
2023-02-26T13:37:33.349Z,101695.00
2023-02-26T13:40:40.031Z,101692.00
2023-02-26T13:43:24.989Z,101682.00
2023-02-26T13:46:21.169Z,101688.00
2023-02-26T13:49:12.302Z,101699.00
2023-02-26T13:51:41.985Z,101700.00
2023-02-26T13:54:45.544Z,101700.00
2023-02-26T13:57:42.589Z,101696.00
2023-02-26T14:00:33.009Z,101698.00
2023-02-26T14:03:16.295Z,101691.00
2023-02-26T14:05:46.368Z,101692.00
2023-02-26T14:08:42.032Z,101700.00
2023-02-26T14:11:17.682Z,101702.00
2023-02-26T14:14:11.386Z,101710.00
2023-02-26T14:16:44.440Z,101706.00
2023-02-26T14:19:40.791Z,101721.00
2023-02-26T14:22:36.040Z,101710.00
2023-02-26T14:25:22.774Z,101709.00
2023-02-26T14:27:50.046Z,101714.00
2023-02-26T14:30:33.984Z,101708.00
2023-02-26T14:33:01.143Z,101709.00
2023-02-26T14:35:31.730Z,101713.00
2023-02-26T14:38:05.157Z,101719.00
2023-02-26T14:40:42.513Z,101717.00
2023-02-26T14:43:37.175Z,101718.00
2023-02-26T14:46:05.228Z,101726.00
2023-02-26T14:48:34.116Z,101731.00
2023-02-26T14:51:38.528Z,101736.00
2023-02-26T14:54:43.338Z,101749.00
2023-02-26T14:57:55.250Z,101744.00
2023-02-26T15:00:49.574Z,101742.00
2023-02-26T15:04:00.277Z,101754.00
2023-02-26T15:07:02.248Z,101749.00
2023-02-26T15:10:03.898Z,101747.00
2023-02-26T15:13:09.492Z,101740.00
2023-02-26T15:15:55.100Z,101741.00
2023-02-26T15:18:46.513Z,101739.00
2023-02-26T15:21:50.160Z,101735.00
2023-02-26T15:24:17.060Z,101742.00
2023-02-26T15:26:53.310Z,101746.00
2023-02-26T15:29:28.784Z,101759.00
2023-02-26T15:32:05.354Z,101748.00
2023-02-26T15:34:33.933Z,101762.00
2023-02-26T15:37:01.315Z,101757.00
2023-02-26T15:39:28.050Z,101764.00
2023-02-26T15:41:56.152Z,101760.00
2023-02-26T15:44:30.694Z,101758.00
2023-02-26T15:47:02.051Z,101755.00
2023-02-26T15:49:43.553Z,101769.00
2023-02-26T15:52:18.307Z,101761.00
2023-02-26T15:55:00.021Z,101775.00
2023-02-26T15:57:28.567Z,101772.00
2023-02-26T16:00:17.108Z,101767.00
2023-02-26T16:02:45.530Z,101776.00
2023-02-26T16:05:16.514Z,101771.00
2023-02-26T16:07:43.321Z,101775.00
2023-02-26T16:10:34.685Z,101763.00
2023-02-26T16:13:02.595Z,101769.00
2023-02-26T16:15:36.768Z,101774.00
2023-02-26T16:18:15.116Z,101776.00
2023-02-26T16:20:49.979Z,101778.00
2023-02-26T16:23:22.902Z,101782.00
2023-02-26T16:26:02.864Z,101786.00
2023-02-26T16:28:37.782Z,101789.00
2023-02-26T16:31:07.097Z,101790.00
2023-02-26T16:33:35.447Z,101790.00
2023-02-26T16:36:17.652Z,101793.00
2023-02-26T16:38:46.089Z,101809.00
2023-02-26T16:41:14.497Z,101806.00
2023-02-26T16:43:49.966Z,101800.00
2023-02-26T16:46:42.462Z,101803.00
2023-02-26T16:49:26.924Z,101820.00
2023-02-26T16:51:56.589Z,101824.00
2023-02-26T16:54:38.860Z,101832.00
2023-02-26T16:57:20.406Z,101829.00
2023-02-26T16:59:54.175Z,101836.00
2023-02-26T17:02:29.343Z,101843.00
2023-02-26T17:05:02.815Z,101838.00
2023-02-26T17:07:36.887Z,101840.00
2023-02-26T17:10:45.354Z,101840.00
2023-02-26T17:13:19.084Z,101852.00
2023-02-26T17:15:47.576Z,101856.00
2023-02-26T17:18:14.728Z,101857.00
2023-02-26T17:20:41.976Z,101869.00
2023-02-26T17:23:11.992Z,101870.00
2023-02-26T17:25:47.134Z,101870.00
2023-02-26T17:28:22.565Z,101882.00
2023-02-26T17:30:49.320Z,101876.00
2023-02-26T17:33:16.191Z,101874.00
2023-02-26T17:35:44.281Z,101884.00
2023-02-26T17:38:13.271Z,101884.00
2023-02-26T17:40:43.144Z,101886.00
2023-02-26T17:43:10.134Z,101896.00
2023-02-26T17:45:40.250Z,101893.00
2023-02-26T17:48:08.629Z,101890.00
2023-02-26T17:50:56.821Z,101897.00
2023-02-26T17:53:29.472Z,101893.00
2023-02-26T17:55:57.556Z,101890.00
2023-02-26T17:58:30.426Z,101895.00
2023-02-26T18:00:57.885Z,101907.00
2023-02-26T18:03:24.707Z,101909.00
2023-02-26T18:05:54.605Z,101904.00
2023-02-26T18:08:25.424Z,101904.00
2023-02-26T18:10:53.458Z,101908.00
2023-02-26T18:13:21.534Z,101900.00
2023-02-26T18:15:50.061Z,101906.00
2023-02-26T18:18:18.277Z,101922.00
2023-02-26T18:20:46.042Z,101921.00
2023-02-26T18:23:13.856Z,101931.00
2023-02-26T18:25:43.299Z,101925.00
2023-02-26T18:28:28.148Z,101929.00
2023-02-26T18:30:56.940Z,101931.00
2023-02-26T18:33:25.293Z,101928.00
2023-02-26T18:35:56.759Z,101916.00
2023-02-26T18:38:28.192Z,101928.00
2023-02-26T18:40:55.611Z,101940.00
2023-02-26T18:43:22.701Z,101939.00
2023-02-26T18:45:52.773Z,101943.00
2023-02-26T18:48:21.097Z,101938.00
2023-02-26T18:50:49.080Z,101942.00
2023-02-26T18:53:17.562Z,101946.00
2023-02-26T18:55:44.996Z,101959.00
2023-02-26T18:58:13.149Z,101959.00
2023-02-26T19:00:40.153Z,101966.00
2023-02-26T19:03:08.781Z,101971.00
2023-02-26T19:05:35.905Z,101957.00
2023-02-26T19:08:02.635Z,101967.00
2023-02-26T19:10:31.391Z,101973.00
2023-02-26T19:12:58.567Z,101974.00
2023-02-26T19:15:25.411Z,101982.00
2023-02-26T19:17:52.203Z,101977.00
2023-02-26T19:20:19.599Z,101981.00
2023-02-26T19:22:47.074Z,101976.00
2023-02-26T19:25:14.569Z,101973.00
2023-02-26T19:27:44.201Z,101985.00
2023-02-26T19:30:11.607Z,101989.00
2023-02-26T19:32:38.462Z,101969.00
2023-02-26T19:35:07.841Z,101984.00
2023-02-26T19:37:34.860Z,101982.00
2023-02-26T19:40:01.616Z,101990.00
2023-02-26T19:42:28.540Z,101993.00
2023-02-26T19:44:55.263Z,101991.00
2023-02-26T19:47:23.464Z,101992.00
2023-02-26T19:49:50.229Z,101999.00
2023-02-26T19:52:20.048Z,102000.00
2023-02-26T19:54:46.758Z,101993.00
2023-02-26T19:57:13.560Z,102000.00
2023-02-26T19:59:40.816Z,101999.00
2023-02-26T20:02:09.965Z,101999.00
2023-02-26T20:04:37.552Z,101998.00
2023-02-26T20:07:06.908Z,102008.00
2023-02-26T20:09:34.619Z,102021.00
2023-02-26T20:12:02.722Z,102016.00
2023-02-26T20:14:29.445Z,102023.00
2023-02-26T20:16:56.169Z,102034.00
2023-02-26T20:19:22.977Z,102034.00
2023-02-26T20:21:49.844Z,102027.00
2023-02-26T20:24:18.430Z,102026.00
2023-02-26T20:26:45.815Z,102042.00
2023-02-26T20:29:15.035Z,102045.00
2023-02-26T20:31:42.100Z,102043.00
2023-02-26T20:34:09.284Z,102041.00
2023-02-26T20:36:36.280Z,102042.00
2023-02-26T20:39:03.111Z,102043.00
2023-02-26T20:41:29.930Z,102051.00
2023-02-26T20:43:58.612Z,102049.00
2023-02-26T20:46:25.495Z,102053.00
2023-02-26T20:48:52.665Z,102053.00
2023-02-26T20:51:19.534Z,102054.00
2023-02-26T20:53:46.291Z,102049.00
2023-02-26T20:56:13.040Z,102056.00
2023-02-26T20:58:41.250Z,102051.00
2023-02-26T21:01:08.065Z,102058.00
2023-02-26T21:03:34.984Z,102065.00
2023-02-26T21:06:01.740Z,102069.00
2023-02-26T21:08:28.460Z,102069.00
2023-02-26T21:10:55.231Z,102063.00
2023-02-26T21:13:21.979Z,102062.00
2023-02-26T21:15:51.828Z,102082.00
2023-02-26T21:18:18.591Z,102081.00
2023-02-26T21:20:45.326Z,102076.00
2023-02-26T21:23:12.022Z,102075.00
2023-02-26T21:25:40.623Z,102068.00
2023-02-26T21:28:07.404Z,102094.00
2023-02-26T21:30:35.635Z,102093.00
2023-02-26T21:33:02.471Z,102091.00
2023-02-26T21:35:29.301Z,102089.00
2023-02-26T21:37:56.060Z,102079.00
2023-02-26T21:40:22.927Z,102095.00
2023-02-26T21:42:49.673Z,102090.00
2023-02-26T21:45:16.454Z,102102.00
2023-02-26T21:47:43.225Z,102100.00
2023-02-26T21:50:10.901Z,102092.00
2023-02-26T21:52:37.676Z,102091.00
2023-02-26T21:55:04.909Z,102099.00
2023-02-26T21:57:31.633Z,102104.00
2023-02-26T21:59:58.360Z,102094.00
2023-02-26T22:02:25.206Z,102096.00
2023-02-26T22:04:51.950Z,102109.00
2023-02-26T22:07:18.696Z,102114.00
2023-02-26T22:09:47.338Z,102109.00
2023-02-26T22:12:15.396Z,102101.00
2023-02-26T22:14:42.718Z,102110.00
2023-02-26T22:17:09.736Z,102115.00
2023-02-26T22:19:36.488Z,102114.00
2023-02-26T22:22:03.932Z,102112.00
2023-02-26T22:24:30.867Z,102113.00
2023-02-26T22:26:57.736Z,102116.00
2023-02-26T22:29:24.810Z,102110.00
2023-02-26T22:31:51.931Z,102122.00
2023-02-26T22:34:18.758Z,102125.00
2023-02-26T22:36:46.079Z,102131.00
2023-02-26T22:39:13.779Z,102136.00
2023-02-26T22:41:40.674Z,102143.00
2023-02-26T22:44:07.419Z,102135.00
2023-02-26T22:46:34.385Z,102147.00
2023-02-26T22:49:01.344Z,102151.00
2023-02-26T22:51:29.833Z,102157.00
2023-02-26T22:54:00.535Z,102139.00
2023-02-26T22:56:27.971Z,102151.00
2023-02-26T22:58:55.322Z,102149.00
2023-02-26T23:01:22.221Z,102138.00
2023-02-26T23:03:49.078Z,102149.00
2023-02-26T23:06:16.143Z,102153.00
2023-02-26T23:08:42.986Z,102147.00
2023-02-26T23:11:10.106Z,102157.00
2023-02-26T23:13:37.995Z,102166.00
2023-02-26T23:16:08.800Z,102159.00
2023-02-26T23:18:37.153Z,102147.00
2023-02-26T23:21:05.768Z,102150.00
2023-02-26T23:23:32.909Z,102153.00
2023-02-26T23:25:59.654Z,102157.00
2023-02-26T23:28:26.997Z,102162.00
2023-02-26T23:30:54.055Z,102159.00
2023-02-26T23:33:20.960Z,102161.00
2023-02-26T23:35:48.566Z,102148.00
2023-02-26T23:38:15.412Z,102151.00
2023-02-26T23:40:42.351Z,102153.00
2023-02-26T23:43:09.173Z,102159.00
2023-02-26T23:45:35.927Z,102168.00
2023-02-26T23:48:02.651Z,102152.00
2023-02-26T23:50:29.382Z,102155.00
2023-02-26T23:52:56.142Z,102159.00
2023-02-26T23:55:22.879Z,102164.00
2023-02-26T23:57:49.664Z,102156.00
